Time;durP1;ratioP1;P1;durP2;ratioP2;P2;SDS_P1;SDS_P2;PMS_P1;PMS_P2;Temp;Humidity;BMP_temperature;BMP_pressure;BME280_temperature;BME280_humidity;BME280_pressure;Samples;Min_cycle;Max_cycle;Signal;HPM_P1;HPM_P2
2023/02/17 00:02:59;;;;;;;53.60;28.30;;;;;;;4.28;77.74;100492.77;131119;1253;107514;-73
2023/02/17 00:06:09;;;;;;;54.40;29.90;;;;;;;4.22;77.72;100491.20;131129;1250;107521;-73
2023/02/17 00:09:14;;;;;;;57.50;29.00;;;;;;;4.18;77.72;100489.59;131290;1252;107347;-73
2023/02/17 00:12:20;;;;;;;54.90;29.90;;;;;;;4.14;77.75;100482.10;131049;1272;107895;-73
2023/02/17 00:15:25;;;;;;;52.70;29.50;;;;;;;4.12;78.00;100479.42;131044;1254;107563;-72
2023/02/17 00:18:31;;;;;;;53.00;28.20;;;;;;;4.11;77.93;100474.04;131202;1254;106813;-72
2023/02/17 00:21:36;;;;;;;52.80;26.90;;;;;;;4.10;78.04;100473.23;131034;1254;107519;-73
2023/02/17 00:24:42;;;;;;;46.50;24.70;;;;;;;4.11;77.87;100472.62;131266;1261;107546;-73
2023/02/17 00:27:48;;;;;;;52.10;26.70;;;;;;;4.16;77.99;100473.87;131129;1262;109410;-74
2023/02/17 00:30:53;;;;;;;56.80;28.90;;;;;;;4.22;77.96;100474.02;131106;1251;107550;-73
2023/02/17 00:33:59;;;;;;;52.20;28.00;;;;;;;4.25;77.97;100476.10;131227;1251;107645;-73
2023/02/17 00:37:05;;;;;;;58.80;29.50;;;;;;;4.28;78.01;100470.77;131303;1259;108467;-72
2023/02/17 00:40:12;;;;;;;53.20;29.70;;;;;;;4.29;77.94;100468.37;131267;1263;107530;-72
2023/02/17 00:43:18;;;;;;;54.30;29.10;;;;;;;4.29;78.02;100465.19;131081;1265;106225;-73
2023/02/17 00:46:26;;;;;;;53.90;29.20;;;;;;;4.27;77.98;100462.01;131042;1253;107670;-73
2023/02/17 00:49:31;;;;;;;53.60;28.90;;;;;;;4.23;78.02;100466.67;131094;1253;106564;-72
2023/02/17 00:52:37;;;;;;;50.70;28.10;;;;;;;4.18;77.97;100466.70;131007;1255;107256;-73
2023/02/17 00:55:42;;;;;;;54.00;28.30;;;;;;;4.13;77.96;100456.70;131085;1254;107617;-72
2023/02/17 00:58:48;;;;;;;46.10;26.20;;;;;;;4.07;78.04;100449.29;131053;1253;108641;-73
2023/02/17 01:01:54;;;;;;;48.80;26.00;;;;;;;4.06;78.08;100445.51;131238;1262;107374;-73
2023/02/17 01:05:00;;;;;;;48.10;24.40;;;;;;;4.06;78.17;100450.09;131058;1263;107492;-73
2023/02/17 01:08:06;;;;;;;52.40;25.80;;;;;;;4.07;77.99;100448.59;131090;1260;107435;-72
2023/02/17 01:11:19;;;;;;;49.40;26.70;;;;;;;4.07;77.99;100441.73;131119;1252;108640;-73
2023/02/17 01:14:24;;;;;;;51.80;27.70;;;;;;;4.08;77.92;100444.45;131205;1251;107554;-73
2023/02/17 01:17:33;;;;;;;51.20;27.60;;;;;;;4.09;78.00;100435.59;131201;1252;107489;-73
2023/02/17 01:20:40;;;;;;;47.40;26.30;;;;;;;4.10;77.91;100431.37;131060;1253;107536;-73
2023/02/17 01:23:46;;;;;;;48.80;26.60;;;;;;;4.09;77.81;100435.83;131109;1262;107466;-72
2023/02/17 01:26:51;;;;;;;56.00;28.10;;;;;;;4.05;77.93;100432.58;131266;1257;107415;-73
2023/02/17 01:29:57;;;;;;;55.10;28.10;;;;;;;4.03;77.86;100435.17;131354;1263;107563;-72
2023/02/17 01:33:05;;;;;;;51.70;27.50;;;;;;;4.03;78.19;100436.90;131070;1251;107543;-72
2023/02/17 01:36:14;;;;;;;54.90;28.50;;;;;;;4.03;78.17;100443.45;131220;1252;107869;-73
2023/02/17 01:39:19;;;;;;;52.60;27.30;;;;;;;4.05;78.46;100435.55;131177;1263;107370;-71
2023/02/17 01:42:25;;;;;;;50.00;25.30;;;;;;;4.12;78.51;100436.14;131033;1254;107517;-72
2023/02/17 01:45:40;;;;;;;53.40;27.50;;;;;;;4.22;78.50;100432.12;131022;1256;108360;-73
2023/02/17 01:48:49;;;;;;;50.30;28.40;;;;;;;4.32;78.52;100430.32;130952;1255;107529;-73
2023/02/17 01:52:01;;;;;;;52.90;28.30;;;;;;;4.41;78.62;100423.53;131037;1260;107364;-73
2023/02/17 01:55:11;;;;;;;55.40;28.50;;;;;;;4.51;78.58;100424.77;131055;1253;107599;-74
2023/02/17 01:58:20;;;;;;;53.90;28.70;;;;;;;4.58;78.52;100423.20;131173;1253;107583;-73
2023/02/17 02:01:26;;;;;;;49.50;28.20;;;;;;;4.64;78.57;100420.09;131149;1253;107724;-74
2023/02/17 02:04:36;;;;;;;53.80;29.30;;;;;;;4.69;78.63;100416.20;131023;1263;107534;-74
2023/02/17 02:07:43;;;;;;;51.20;27.30;;;;;;;4.73;78.79;100409.08;131065;1255;107823;-73
2023/02/17 02:10:49;;;;;;;53.60;29.10;;;;;;;4.76;78.71;100404.77;131231;1263;107549;-73
2023/02/17 02:13:54;;;;;;;52.60;26.70;;;;;;;4.84;78.76;100401.95;131060;1254;108123;-73
2023/02/17 02:17:08;;;;;;;54.60;28.00;;;;;;;4.92;78.76;100392.14;131179;1255;106524;-73
2023/02/17 02:20:41;;;;;;;53.10;28.10;;;;;;;5.04;78.61;100388.66;131070;1262;107374;-72
2023/02/17 02:23:59;;;;;;;49.90;27.20;;;;;;;5.14;78.75;100380.83;131049;1251;108614;-73
2023/02/17 02:27:41;;;;;;;49.20;28.40;;;;;;;5.21;78.71;100381.20;131053;1251;107462;-73
2023/02/17 02:31:00;;;;;;;49.70;27.80;;;;;;;5.25;78.76;100376.49;131010;1253;107477;-74
2023/02/17 02:34:10;;;;;;;50.50;28.20;;;;;;;5.27;78.77;100375.81;131015;1263;106638;-73
2023/02/17 02:37:25;;;;;;;52.90;27.80;;;;;;;5.28;78.82;100372.74;131002;1254;107403;-73
2023/02/17 02:40:35;;;;;;;44.90;25.20;;;;;;;5.28;78.77;100373.64;131171;1253;107527;-72
2023/02/17 02:43:41;;;;;;;50.40;25.80;;;;;;;5.29;78.87;100371.77;131011;1263;108685;-73
2023/02/17 02:46:55;;;;;;;45.40;25.60;;;;;;;5.35;78.93;100371.19;131141;1256;107481;-73
2023/02/17 02:50:01;;;;;;;45.20;25.90;;;;;;;5.40;78.77;100367.41;131079;1254;107403;-73
2023/02/17 02:53:27;;;;;;;48.80;28.00;;;;;;;5.46;78.88;100357.55;131206;1253;107665;-72
2023/02/17 02:56:46;;;;;;;47.00;27.40;;;;;;;5.53;79.09;100359.05;131392;1254;107461;-73
2023/02/17 03:00:10;;;;;;;46.80;26.80;;;;;;;5.55;79.12;100356.80;131340;1255;107446;-72
2023/02/17 03:03:25;;;;;;;44.60;25.70;;;;;;;5.54;79.39;100360.20;131219;1253;107536;-73
2023/02/17 03:06:37;;;;;;;43.30;25.70;;;;;;;5.51;79.49;100354.90;131298;1263;107573;-73
2023/02/17 03:09:43;;;;;;;43.00;24.60;;;;;;;5.49;79.68;100358.61;131364;1253;107461;-73
2023/02/17 03:12:52;;;;;;;45.00;23.50;;;;;;;5.47;79.49;100353.27;131185;1250;108250;-72
2023/02/17 03:15:58;;;;;;;48.90;25.40;;;;;;;5.47;79.70;100357.36;131031;1253;107501;-73
2023/02/17 03:19:05;;;;;;;45.80;26.20;;;;;;;5.48;79.74;100358.35;131111;1254;107549;-72
2023/02/17 03:22:17;;;;;;;47.70;27.90;;;;;;;5.52;80.04;100359.26;131044;1254;107523;-73
2023/02/17 03:25:26;;;;;;;48.40;27.40;;;;;;;5.55;79.94;100359.98;131349;1251;107546;-73
2023/02/17 03:28:32;;;;;;;46.10;26.20;;;;;;;5.54;79.69;100359.64;131273;1254;107464;-73
2023/02/17 03:31:38;;;;;;;48.60;28.10;;;;;;;5.54;79.70;100360.39;131031;1254;107585;-74
2023/02/17 03:34:44;;;;;;;45.60;27.20;;;;;;;5.51;79.75;100358.59;131066;1251;107548;-73
2023/02/17 03:37:49;;;;;;;50.60;28.80;;;;;;;5.49;79.95;100362.30;131192;1251;107875;-73
2023/02/17 03:40:55;;;;;;;43.90;24.50;;;;;;;5.46;79.65;100359.89;131208;1253;107538;-73
2023/02/17 03:44:00;;;;;;;45.40;24.80;;;;;;;5.44;79.90;100360.39;131201;1263;107554;-74
2023/02/17 03:47:06;;;;;;;48.10;26.20;;;;;;;5.45;79.84;100364.57;130997;1255;108363;-75
2023/02/17 03:50:12;;;;;;;50.10;28.50;;;;;;;5.46;79.81;100361.09;131162;1251;107620;-74
2023/02/17 03:53:18;;;;;;;51.60;29.90;;;;;;;5.50;80.02;100361.70;131359;1264;108646;-74
2023/02/17 03:56:23;;;;;;;53.00;30.40;;;;;;;5.51;79.66;100356.31;131305;1260;107207;-75
2023/02/17 03:59:29;;;;;;;55.00;30.40;;;;;;;5.49;79.64;100353.46;131118;1255;107625;-74
2023/02/17 04:02:34;;;;;;;58.40;30.40;;;;;;;5.47;79.68;100358.08;131074;1253;108647;-75
2023/02/17 04:05:40;;;;;;;60.00;31.20;;;;;;;5.44;79.61;100357.43;131063;1267;107520;-75
2023/02/17 04:08:45;;;;;;;55.60;31.50;;;;;;;5.38;79.73;100360.14;131213;1251;107266;-74
2023/02/17 04:11:51;;;;;;;54.80;30.60;;;;;;;5.33;79.75;100356.43;131387;1254;107616;-74
2023/02/17 04:14:56;;;;;;;53.50;28.00;;;;;;;5.29;79.80;100353.45;131454;1251;107557;-73
2023/02/17 04:18:02;;;;;;;51.00;28.00;;;;;;;5.24;79.78;100347.46;131019;1253;108642;-74
2023/02/17 04:21:08;;;;;;;51.00;27.70;;;;;;;5.23;79.89;100346.14;131175;1254;107500;-75
2023/02/17 04:24:14;;;;;;;57.50;31.50;;;;;;;5.22;79.70;100347.25;131212;1254;105546;-74
2023/02/17 04:27:19;;;;;;;55.20;30.70;;;;;;;5.25;79.97;100342.60;131415;1254;107517;-74
2023/02/17 04:30:25;;;;;;;54.80;30.80;;;;;;;5.28;79.83;100332.36;131345;1253;108754;-74
2023/02/17 04:33:30;;;;;;;56.80;30.70;;;;;;;5.28;79.76;100327.91;131063;1263;108094;-74
2023/02/17 04:36:36;;;;;;;54.80;31.10;;;;;;;5.28;79.82;100321.25;131246;1253;108826;-74
2023/02/17 04:39:41;;;;;;;60.00;32.50;;;;;;;5.25;79.66;100316.33;131170;1254;107520;-74
2023/02/17 04:42:47;;;;;;;52.20;30.80;;;;;;;5.23;79.70;100315.80;131194;1251;107572;-73
2023/02/17 04:45:53;;;;;;;52.80;31.20;;;;;;;5.20;79.38;100308.96;131495;1253;107516;-73
2023/02/17 04:48:59;;;;;;;56.10;29.30;;;;;;;5.15;79.54;100302.70;131368;1254;107530;-73
2023/02/17 04:52:05;;;;;;;55.70;29.70;;;;;;;5.11;79.75;100309.47;131468;1252;107178;-74
2023/02/17 04:55:10;;;;;;;52.10;29.10;;;;;;;5.11;79.78;100309.14;131264;1249;107517;-73
2023/02/17 04:58:17;;;;;;;52.80;28.90;;;;;;;5.13;79.68;100300.87;131160;1255;108878;-74
2023/02/17 05:01:22;;;;;;;54.20;31.30;;;;;;;5.14;79.52;100290.25;131126;1254;107495;-75
2023/02/17 05:04:28;;;;;;;55.20;30.90;;;;;;;5.14;79.53;100282.44;131340;1251;107350;-72
2023/02/17 05:07:34;;;;;;;58.40;31.60;;;;;;;5.13;79.39;100278.83;131012;1251;107524;-74
2023/02/17 05:10:39;;;;;;;57.00;32.30;;;;;;;5.11;79.31;100291.48;130961;1263;107515;-74
2023/02/17 05:13:45;;;;;;;58.80;32.20;;;;;;;5.07;79.16;100292.31;130954;1251;107517;-75
2023/02/17 05:16:50;;;;;;;58.60;33.40;;;;;;;5.04;79.35;100291.70;131024;1254;106128;-74
2023/02/17 05:19:56;;;;;;;59.20;32.70;;;;;;;5.01;79.40;100284.33;130969;1251;107406;-74
2023/02/17 05:23:01;;;;;;;56.50;30.70;;;;;;;4.98;79.49;100282.26;131035;1251;107253;-72
2023/02/17 05:26:07;;;;;;;55.00;29.50;;;;;;;4.95;79.24;100279.31;131259;1253;107523;-72
2023/02/17 05:29:13;;;;;;;56.40;30.80;;;;;;;4.92;79.44;100284.25;131347;1255;107534;-76
2023/02/17 05:32:19;;;;;;;54.80;31.50;;;;;;;4.93;79.29;100283.16;131229;1254;107459;-74
2023/02/17 05:35:24;;;;;;;55.20;31.40;;;;;;;4.94;79.14;100277.08;131142;1254;107508;-75
2023/02/17 05:38:30;;;;;;;56.30;31.90;;;;;;;4.96;79.29;100271.45;131019;1254;107572;-74
2023/02/17 05:41:36;;;;;;;59.40;32.40;;;;;;;4.96;79.20;100269.67;131225;1251;106689;-72
2023/02/17 05:44:41;;;;;;;57.70;31.70;;;;;;;4.96;79.10;100273.09;131295;1254;107506;-74
2023/02/17 05:47:47;;;;;;;54.10;30.90;;;;;;;4.94;79.05;100271.81;131260;1253;108494;-74
2023/02/17 05:50:52;;;;;;;55.10;31.30;;;;;;;4.90;79.08;100275.40;131163;1254;107204;-73
2023/02/17 05:53:58;;;;;;;57.30;31.80;;;;;;;4.87;79.09;100280.79;131026;1251;107519;-74
2023/02/17 05:57:03;;;;;;;54.50;30.40;;;;;;;4.83;79.03;100279.29;131061;1253;107515;-75
2023/02/17 06:00:11;;;;;;;51.50;28.40;;;;;;;4.81;79.18;100276.29;130994;1250;107218;-73
2023/02/17 06:03:20;;;;;;;50.50;27.30;;;;;;;4.80;79.13;100271.94;131056;1254;107548;-74
2023/02/17 06:06:25;;;;;;;51.90;27.90;;;;;;;4.83;79.18;100267.31;131036;1254;107535;-74
2023/02/17 06:09:31;;;;;;;51.60;27.90;;;;;;;4.88;79.00;100265.52;131282;1250;107308;-73
2023/02/17 06:12:36;;;;;;;52.50;28.40;;;;;;;4.94;79.04;100265.80;131364;1264;107332;-73
2023/02/17 06:15:42;;;;;;;47.50;28.20;;;;;;;4.98;78.81;100256.89;131131;1249;107589;-72
2023/02/17 06:18:47;;;;;;;52.80;28.60;;;;;;;5.00;78.83;100250.54;131146;1255;107476;-74
2023/02/17 06:21:54;;;;;;;49.70;28.00;;;;;;;5.01;78.79;100247.47;131363;1252;106330;-72
2023/02/17 06:25:00;;;;;;;50.90;28.30;;;;;;;5.03;78.85;100246.95;131081;1272;107211;-74
2023/02/17 06:28:06;;;;;;;46.60;27.40;;;;;;;5.05;78.77;100252.27;131106;1263;106823;-74
2023/02/17 06:31:11;;;;;;;49.50;28.50;;;;;;;5.07;78.76;100253.66;131245;1255;108685;-74
2023/02/17 06:34:17;;;;;;;49.80;28.10;;;;;;;5.10;78.73;100250.10;131332;1253;107620;-74
2023/02/17 06:37:22;;;;;;;50.10;26.40;;;;;;;5.14;78.72;100257.40;131347;1254;107510;-74
2023/02/17 06:40:28;;;;;;;48.20;25.50;;;;;;;5.19;78.60;100261.25;131383;1253;108371;-74
2023/02/17 06:43:34;;;;;;;48.20;27.00;;;;;;;5.26;78.49;100260.02;131136;1254;107519;-73
2023/02/17 06:46:39;;;;;;;47.50;27.40;;;;;;;5.37;78.69;100256.36;131123;1251;107528;-74
2023/02/17 06:49:45;;;;;;;47.60;27.90;;;;;;;5.47;78.58;100246.89;131107;1249;107628;-72
2023/02/17 06:52:50;;;;;;;51.10;28.20;;;;;;;5.56;78.36;100246.41;131339;1253;108020;-72
2023/02/17 06:55:56;;;;;;;46.70;27.60;;;;;;;5.61;78.29;100246.48;131387;1254;106240;-73
2023/02/17 06:59:02;;;;;;;47.90;27.70;;;;;;;5.67;78.48;100251.02;131383;1250;107336;-72
2023/02/17 07:02:11;;;;;;;48.50;26.60;;;;;;;5.69;78.20;100247.30;131264;1254;107511;-73
2023/02/17 07:05:16;;;;;;;48.50;26.80;;;;;;;5.72;78.34;100250.96;131220;1249;106677;-72
2023/02/17 07:08:22;;;;;;;49.20;28.20;;;;;;;5.72;78.03;100248.27;131109;1260;107651;-72
2023/02/17 07:11:30;;;;;;;65.00;38.20;;;;;;;5.72;78.42;100243.14;131048;1254;107527;-74
2023/02/17 07:14:36;;;;;;;50.30;29.60;;;;;;;5.69;78.28;100241.42;131117;1249;107435;-73
2023/02/17 07:17:41;;;;;;;88.70;51.50;;;;;;;5.67;78.30;100236.52;131191;1264;105726;-73
2023/02/17 07:20:47;;;;;;;48.20;27.90;;;;;;;5.68;78.19;100241.73;131100;1261;107225;-74
2023/02/17 07:23:53;;;;;;;47.50;27.70;;;;;;;5.74;78.34;100239.48;131186;1255;108153;-74
2023/02/17 07:26:59;;;;;;;50.70;29.50;;;;;;;5.83;78.30;100237.52;131102;1272;107216;-74
2023/02/17 07:30:06;;;;;;;51.30;27.80;;;;;;;5.92;78.09;100234.38;131000;1250;107786;-74
2023/02/17 07:33:12;;;;;;;49.40;28.00;;;;;;;5.98;78.00;100227.36;131115;1250;107436;-74
2023/02/17 07:36:20;;;;;;;46.80;26.90;;;;;;;6.03;78.13;100230.16;131211;1253;107672;-74
2023/02/17 07:39:26;;;;;;;55.90;31.10;;;;;;;6.05;78.44;100229.94;131350;1254;107511;-75
2023/02/17 07:42:31;;;;;;;47.00;27.20;;;;;;;6.09;78.17;100231.06;131394;1251;107972;-74
2023/02/17 07:45:37;;;;;;;43.90;26.90;;;;;;;6.11;78.12;100226.11;131355;1254;107287;-74
2023/02/17 07:48:42;;;;;;;56.20;32.20;;;;;;;6.15;78.25;100225.46;131382;1252;107262;-74
2023/02/17 07:51:48;;;;;;;49.60;29.20;;;;;;;6.18;77.98;100229.76;131338;1250;108636;-74
2023/02/17 07:54:53;;;;;;;47.70;28.00;;;;;;;6.20;77.56;100229.25;131066;1254;106635;-73
2023/02/17 07:57:59;;;;;;;48.40;28.30;;;;;;;6.24;77.81;100229.53;131027;1253;105635;-74
2023/02/17 08:01:08;;;;;;;264.70;98.00;;;;;;;6.27;77.99;100225.49;131024;1253;107495;-74
2023/02/17 08:04:14;;;;;;;56.40;29.40;;;;;;;6.30;77.81;100217.48;131331;1252;108711;-72
2023/02/17 08:07:20;;;;;;;532.50;282.00;;;;;;;6.37;77.64;100218.17;131140;1254;107728;-74
2023/02/17 08:13:54;;;;;;;92.00;48.60;;;;;;;6.59;77.53;100211.77;130660;1250;107514;-73
2023/02/17 08:16:59;;;;;;;64.70;34.70;;;;;;;6.65;77.58;100211.39;130936;1254;107496;-76
2023/02/17 08:20:08;;;;;;;51.30;29.70;;;;;;;6.71;77.73;100207.95;130954;1262;107554;-74
2023/02/17 08:23:13;;;;;;;50.80;29.00;;;;;;;6.76;77.86;100207.55;130930;1254;107464;-75
2023/02/17 08:26:20;;;;;;;45.50;27.60;;;;;;;6.80;77.95;100205.42;131012;1265;107128;-73
2023/02/17 08:29:33;;;;;;;48.60;27.70;;;;;;;6.80;78.09;100206.10;131166;1250;107367;-75
2023/02/17 08:32:39;;;;;;;47.90;28.00;;;;;;;6.83;78.20;100210.27;131129;1268;107600;-74
2023/02/17 08:35:44;;;;;;;46.80;28.30;;;;;;;6.84;78.56;100208.25;131038;1250;107360;-74
2023/02/17 08:38:51;;;;;;;47.00;26.70;;;;;;;6.79;78.56;100203.86;131009;1254;108586;-73
2023/02/17 08:41:57;;;;;;;42.60;25.30;;;;;;;6.81;78.73;100199.32;131031;1264;107372;-74
2023/02/17 08:45:03;;;;;;;43.20;25.50;;;;;;;6.88;78.76;100194.45;131027;1251;107380;-75
2023/02/17 08:48:08;;;;;;;50.90;27.90;;;;;;;6.97;79.10;100192.48;131021;1255;108628;-75
2023/02/17 08:51:17;;;;;;;228.70;105.10;;;;;;;7.03;78.75;100193.73;131038;1253;107472;-74
2023/02/17 08:54:22;;;;;;;86.50;42.40;;;;;;;7.06;79.12;100196.28;131031;1254;107411;-73
2023/02/17 08:57:28;;;;;;;53.90;33.50;;;;;;;7.10;78.90;100197.25;130987;1250;107351;-74
2023/02/17 09:00:33;;;;;;;51.30;28.10;;;;;;;7.08;78.68;100201.08;131045;1254;107442;-74
2023/02/17 09:03:40;;;;;;;54.70;33.00;;;;;;;7.02;78.95;100195.53;131017;1255;107504;-74
2023/02/17 09:06:48;;;;;;;53.90;29.50;;;;;;;6.98;78.80;100197.71;130995;1253;107452;-74
2023/02/17 09:09:53;;;;;;;44.50;27.20;;;;;;;6.93;79.31;100200.38;131118;1249;107414;-74
2023/02/17 09:12:59;;;;;;;42.10;24.60;;;;;;;6.91;79.79;100198.29;130945;1260;107320;-74
2023/02/17 09:16:05;;;;;;;37.80;23.30;;;;;;;6.92;79.73;100200.45;130923;1250;106509;-73
2023/02/17 09:19:10;;;;;;;43.90;26.40;;;;;;;6.98;79.73;100195.88;130948;1252;107515;-73
2023/02/17 09:22:19;;;;;;;44.90;26.50;;;;;;;7.08;79.68;100183.89;131009;1251;107615;-73
2023/02/17 09:25:24;;;;;;;41.60;25.80;;;;;;;7.21;79.78;100183.66;131216;1253;107559;-73
2023/02/17 09:28:30;;;;;;;42.00;26.10;;;;;;;7.33;79.99;100171.87;131149;1251;107467;-73
2023/02/17 09:31:36;;;;;;;44.20;26.60;;;;;;;7.44;80.11;100169.61;131061;1253;107667;-73
2023/02/17 09:34:48;;;;;;;40.50;26.80;;;;;;;7.52;79.85;100163.80;131201;1254;107513;-73
2023/02/17 09:37:54;;;;;;;42.50;26.80;;;;;;;7.59;79.89;100158.81;131005;1250;107390;-74
2023/02/17 09:41:05;;;;;;;41.00;23.40;;;;;;;7.64;80.15;100152.52;131357;1252;107380;-72
2023/02/17 09:44:23;;;;;;;35.60;22.50;;;;;;;7.68;80.09;100144.36;131346;1249;107279;-72
2023/02/17 09:47:35;;;;;;;40.60;26.20;;;;;;;7.75;80.28;100143.75;131316;1255;107502;-71
2023/02/17 09:50:46;;;;;;;41.60;26.10;;;;;;;7.78;80.24;100137.63;131312;1253;107518;-75
2023/02/17 09:54:03;;;;;;;43.90;26.50;;;;;;;7.80;80.49;100135.79;131051;1250;107363;-73
2023/02/17 09:57:14;;;;;;;41.90;26.00;;;;;;;7.82;80.31;100131.02;131272;1253;107524;-73
2023/02/17 10:00:22;;;;;;;44.50;26.80;;;;;;;7.84;80.48;100124.61;131105;1250;107346;-72
2023/02/17 10:03:32;;;;;;;43.90;27.20;;;;;;;7.86;80.33;100120.55;131386;1253;106698;-72
2023/02/17 10:06:41;;;;;;;42.00;27.00;;;;;;;7.83;80.69;100120.64;131228;1250;107205;-72
2023/02/17 10:09:51;;;;;;;40.00;23.90;;;;;;;7.81;80.64;100115.72;131167;1252;107431;-72
2023/02/17 10:13:00;;;;;;;40.30;23.50;;;;;;;7.80;80.75;100110.11;131314;1250;107571;-72
2023/02/17 10:16:11;;;;;;;39.80;24.40;;;;;;;7.84;80.81;100104.66;131196;1252;108597;-76
2023/02/17 10:19:22;;;;;;;42.20;26.70;;;;;;;7.86;81.03;100103.55;131065;1251;107516;-73
2023/02/17 10:22:28;;;;;;;41.80;26.50;;;;;;;7.90;80.98;100105.20;131148;1249;107286;-74
2023/02/17 10:25:50;;;;;;;42.90;26.60;;;;;;;7.88;81.14;100106.10;131378;1264;107568;-73
2023/02/17 10:29:02;;;;;;;40.40;25.10;;;;;;;7.85;81.23;100102.44;131200;1250;107371;-71
2023/02/17 10:32:20;;;;;;;43.70;25.80;;;;;;;7.82;81.18;100097.20;131205;1265;107248;-72
2023/02/17 10:35:44;;;;;;;41.80;26.10;;;;;;;7.78;81.50;100084.14;131402;1252;107474;-72
2023/02/17 10:38:53;;;;;;;35.80;22.70;;;;;;;7.76;81.66;100075.64;131280;1253;107679;-74
2023/02/17 10:42:00;;;;;;;35.20;20.80;;;;;;;7.78;81.69;100068.19;131168;1250;107455;-74
2023/02/17 10:45:11;;;;;;;40.20;24.90;;;;;;;7.82;81.58;100061.47;131040;1254;107608;-73
2023/02/17 10:48:20;;;;;;;38.40;23.80;;;;;;;7.91;81.82;100056.95;131314;1253;108643;-74
2023/02/17 10:51:28;;;;;;;39.80;24.10;;;;;;;8.02;81.75;100054.69;131042;1251;107325;-73
2023/02/17 10:54:38;;;;;;;39.60;25.00;;;;;;;8.12;81.76;100045.27;130995;1252;107659;-74
2023/02/17 10:57:48;;;;;;;34.70;23.30;;;;;;;8.21;81.69;100040.70;131024;1253;107911;-74
2023/02/17 11:00:56;;;;;;;39.40;24.10;;;;;;;8.26;81.71;100033.30;131091;1249;107481;-72
2023/02/17 11:04:05;;;;;;;36.40;20.90;;;;;;;8.27;81.69;100023.99;131122;1250;106311;-74
2023/02/17 11:07:13;;;;;;;31.50;19.60;;;;;;;8.24;81.84;100017.30;130939;1254;107508;-73
2023/02/17 11:10:26;;;;;;;34.70;22.00;;;;;;;8.26;81.71;100012.61;131228;1249;107567;-73
2023/02/17 11:13:41;;;;;;;36.90;22.80;;;;;;;8.31;81.76;100005.09;131290;1254;107539;-73
2023/02/17 11:16:51;;;;;;;33.30;22.10;;;;;;;8.32;81.77;99998.16;131313;1250;107266;-73
2023/02/17 11:20:02;;;;;;;32.60;21.70;;;;;;;8.29;81.74;99989.05;131219;1249;107554;-73
2023/02/17 11:23:23;;;;;;;34.00;21.80;;;;;;;8.26;81.63;99979.61;131010;1254;107750;-73
2023/02/17 11:26:31;;;;;;;32.00;20.70;;;;;;;8.23;81.95;99973.35;131013;1253;106500;-73
2023/02/17 11:29:37;;;;;;;30.80;19.20;;;;;;;8.20;82.11;99963.36;131006;1249;108592;-74
2023/02/17 11:32:43;;;;;;;28.70;17.80;;;;;;;8.21;82.12;99958.64;131012;1250;106661;-73
2023/02/17 11:35:53;;;;;;;31.80;20.30;;;;;;;8.23;82.18;99949.42;131158;1253;106824;-73
2023/02/17 11:38:59;;;;;;;30.40;19.80;;;;;;;8.22;82.28;99947.50;131103;1251;107600;-73
2023/02/17 11:42:16;;;;;;;30.60;20.10;;;;;;;8.27;82.24;99949.58;131173;1250;106565;-73
2023/02/17 11:45:25;;;;;;;29.20;18.90;;;;;;;8.29;82.26;99943.00;131514;1249;107554;-73
2023/02/17 11:48:56;;;;;;;29.00;19.50;;;;;;;8.28;82.24;99939.02;131119;1252;107039;-74
2023/02/17 11:52:12;;;;;;;29.80;18.60;;;;;;;8.22;82.22;99936.70;131065;1254;107504;-74
2023/02/17 11:55:35;;;;;;;21.50;14.80;;;;;;;8.17;82.18;99925.52;131158;1254;107958;-73
2023/02/17 11:59:02;;;;;;;23.30;14.90;;;;;;;8.15;82.48;99914.35;131218;1249;107353;-73
2023/02/17 12:02:19;;;;;;;27.60;16.90;;;;;;;8.19;82.62;99900.73;131033;1263;108691;-74
2023/02/17 12:05:30;;;;;;;25.10;17.40;;;;;;;8.22;82.56;99892.11;131048;1250;107523;-75
2023/02/17 12:08:48;;;;;;;26.30;17.90;;;;;;;8.22;82.73;99881.42;130997;1254;106557;-74
2023/02/17 12:12:02;;;;;;;27.50;17.60;;;;;;;8.21;82.70;99875.16;131343;1249;107698;-75
2023/02/17 12:15:27;;;;;;;26.60;17.70;;;;;;;8.20;82.63;99863.62;131323;1255;107525;-74
2023/02/17 12:18:45;;;;;;;26.40;17.90;;;;;;;8.15;82.70;99851.16;131144;1254;108643;-74
2023/02/17 12:22:02;;;;;;;29.90;17.70;;;;;;;8.08;82.70;99846.65;131318;1254;106796;-72
2023/02/17 12:25:31;;;;;;;24.70;15.30;;;;;;;8.02;82.82;99842.97;131272;1254;107380;-72
2023/02/17 12:29:06;;;;;;;28.00;18.80;;;;;;;8.02;83.18;99834.48;131018;1253;108580;-74
2023/02/17 12:32:25;;;;;;;30.80;17.70;;;;;;;8.02;83.27;99827.61;131067;1252;107450;-74
2023/02/17 12:35:40;;;;;;;28.40;18.60;;;;;;;8.03;83.36;99824.45;131004;1252;107401;-74
2023/02/17 12:38:49;;;;;;;28.60;18.50;;;;;;;8.04;83.35;99820.30;130987;1250;107238;-74
2023/02/17 12:42:00;;;;;;;28.10;18.30;;;;;;;8.03;83.36;99820.05;131069;1252;107507;-74
2023/02/17 12:45:16;;;;;;;29.10;17.10;;;;;;;8.00;83.52;99815.36;131004;1252;105732;-75
2023/02/17 12:48:31;;;;;;;28.50;15.40;;;;;;;7.98;83.51;99804.75;131082;1253;107555;-74
2023/02/17 12:51:41;;;;;;;31.40;18.20;;;;;;;8.00;83.98;99793.85;131031;1253;107598;-74
2023/02/17 12:54:54;;;;;;;27.30;18.00;;;;;;;8.02;83.77;99793.08;131101;1255;107593;-73
2023/02/17 12:58:03;;;;;;;26.70;17.10;;;;;;;8.06;83.85;99775.48;131047;1250;107305;-74
2023/02/17 13:01:15;;;;;;;27.10;18.60;;;;;;;8.06;83.98;99773.49;131028;1252;108546;-74
2023/02/17 13:04:23;;;;;;;28.30;17.60;;;;;;;8.04;83.71;99772.42;131036;1250;107505;-74
2023/02/17 13:07:45;;;;;;;25.80;14.90;;;;;;;8.03;83.86;99772.60;131015;1252;107251;-75
2023/02/17 13:11:01;;;;;;;24.10;15.30;;;;;;;8.02;83.91;99766.98;131149;1250;107553;-74
2023/02/17 13:14:24;;;;;;;25.20;16.60;;;;;;;8.01;84.12;99756.80;131414;1249;105649;-74
2023/02/17 13:17:33;;;;;;;27.00;16.70;;;;;;;8.03;84.03;99752.34;131204;1255;106535;-74
2023/02/17 13:20:52;;;;;;;26.60;18.00;;;;;;;8.04;84.15;99750.83;131041;1252;108646;-75
2023/02/17 13:24:02;;;;;;;29.40;19.80;;;;;;;8.03;84.00;99745.79;131331;1254;106108;-73
2023/02/17 13:27:30;;;;;;;25.70;17.10;;;;;;;8.01;84.21;99746.17;131047;1251;106533;-73
2023/02/17 13:30:41;;;;;;;25.10;15.50;;;;;;;7.99;84.25;99741.63;131133;1255;107844;-73
2023/02/17 13:33:53;;;;;;;24.30;14.90;;;;;;;7.98;84.32;99734.11;131051;1249;107197;-73
2023/02/17 13:37:00;;;;;;;27.70;17.40;;;;;;;8.00;84.35;99722.73;131141;1249;107245;-73
2023/02/17 13:40:40;;;;;;;25.70;16.90;;;;;;;8.03;84.53;99719.59;131057;1253;107668;-73
2023/02/17 13:43:46;;;;;;;28.30;18.30;;;;;;;8.07;84.57;99722.39;131215;1251;107537;-74
2023/02/17 13:46:52;;;;;;;26.50;18.50;;;;;;;8.07;84.43;99713.91;131113;1249;107211;-74
2023/02/17 13:49:58;;;;;;;30.10;18.70;;;;;;;8.07;84.67;99715.84;130992;1254;107415;-74
2023/02/17 13:53:21;;;;;;;27.80;17.40;;;;;;;8.03;84.64;99709.63;131174;1255;107403;-74
2023/02/17 13:56:28;;;;;;;26.50;16.60;;;;;;;8.00;84.62;99705.55;130997;1253;107649;-74
2023/02/17 13:59:36;;;;;;;29.90;19.50;;;;;;;8.01;84.74;99699.60;131243;1253;107508;-76
2023/02/17 14:02:50;;;;;;;28.90;20.10;;;;;;;8.03;84.85;99687.67;131180;1253;107479;-74
2023/02/17 14:05:58;;;;;;;32.30;21.70;;;;;;;8.04;84.65;99680.31;131193;1255;108433;-74
2023/02/17 14:09:19;;;;;;;37.70;25.50;;;;;;;8.05;84.67;99679.92;131273;1250;106401;-74
2023/02/17 14:12:29;;;;;;;45.30;32.00;;;;;;;8.05;84.70;99675.14;131337;1257;107420;-74
2023/02/17 14:15:35;;;;;;;57.00;34.30;;;;;;;8.03;84.81;99665.26;131248;1256;107735;-74